GLD879 SIQE-SBNV
Flight info
| Callsign | GLD879 |
|---|---|
| Flight time | 0h 50m |
| Altitude | 4500 |
| Route | REA 1603S04816W 1612S04830W 1637S04844W REA |
| Aircraft | BE35/M-SDFGIRY/S |
Departure
| Time | 2026-05-03 22:10 |
|---|---|
| Airport | Botelho Airport (SIQE) |
Arrival
| Time | 2026-05-03 23:00 |
|---|---|
| Airport | Aeródromo Nacional de Aviação (SBNV) |
| Time | Latitude | Longitude | Altitude | Speed | Heading |
|---|---|---|---|---|---|
| 2026-05-03 22:00 | -15.93959 | -47.72494 | 3382 ft | 0 kts | 35° |
| 2026-05-03 22:06 | -15.93954 | -47.72490 | 3359 ft | 8 kts | 33° |
| 2026-05-03 22:07 | -15.93880 | -47.72547 | 3387 ft | 23 kts | 304° |
| 2026-05-03 22:07 | -15.93772 | -47.72714 | 3391 ft | 35 kts | 303° |
| 2026-05-03 22:07 | -15.93624 | -47.72946 | 3391 ft | 39 kts | 303° |
| 2026-05-03 22:07 | -15.93481 | -47.73167 | 3389 ft | 35 kts | 304° |
| 2026-05-03 22:08 | -15.93391 | -47.73306 | 3387 ft | 1 kts | 334° |
| 2026-05-03 22:08 | -15.93384 | -47.73309 | 3386 ft | 6 kts | 349° |
| 2026-05-03 22:08 | -15.93350 | -47.73284 | 3389 ft | 7 kts | 120° |
| 2026-05-03 22:08 | -15.93352 | -47.73282 | 3386 ft | 0 kts | 122° |
| 2026-05-03 22:09 | -15.93394 | -47.73213 | 3386 ft | 43 kts | 123° |
| 2026-05-03 22:09 | -15.93690 | -47.72740 | 3411 ft | 105 kts | 123° |
| 2026-05-03 22:10 | -15.94658 | -47.71480 | 3912 ft | 113 kts | 147° |
| 2026-05-03 22:10 | -15.95462 | -47.71341 | 4054 ft | 128 kts | 178° |
| 2026-05-03 22:10 | -15.96354 | -47.71246 | 4274 ft | 129 kts | 175° |
| 2026-05-03 22:10 | -15.97243 | -47.71132 | 4449 ft | 136 kts | 159° |
| 2026-05-03 22:11 | -15.98176 | -47.70764 | 4485 ft | 149 kts | 155° |
| 2026-05-03 22:11 | -15.99221 | -47.70420 | 4481 ft | 166 kts | 172° |
| 2026-05-03 22:11 | -16.00349 | -47.70781 | 4474 ft | 179 kts | 213° |
| 2026-05-03 22:11 | -16.01148 | -47.71794 | 4468 ft | 185 kts | 237° |
| 2026-05-03 22:12 | -16.01790 | -47.72950 | 4469 ft | 186 kts | 237° |
| 2026-05-03 22:12 | -16.02452 | -47.74085 | 4472 ft | 183 kts | 236° |
| 2026-05-03 22:12 | -16.03124 | -47.75209 | 4476 ft | 183 kts | 236° |
| 2026-05-03 22:12 | -16.03797 | -47.76333 | 4479 ft | 187 kts | 235° |
| 2026-05-03 22:13 | -16.04498 | -47.77494 | 4471 ft | 187 kts | 235° |
| 2026-05-03 22:13 | -16.05152 | -47.78654 | 4481 ft | 191 kts | 241° |
| 2026-05-03 22:13 | -16.05672 | -47.79933 | 4477 ft | 193 kts | 246° |
| 2026-05-03 22:13 | -16.06166 | -47.81244 | 4480 ft | 193 kts | 245° |
| 2026-05-03 22:14 | -16.06675 | -47.82532 | 4484 ft | 194 kts | 244° |
| 2026-05-03 22:14 | -16.07193 | -47.83817 | 4487 ft | 191 kts | 245° |
| 2026-05-03 22:14 | -16.07711 | -47.85110 | 4482 ft | 196 kts | 245° |
| 2026-05-03 22:14 | -16.08232 | -47.86415 | 4475 ft | 195 kts | 245° |
| 2026-05-03 22:15 | -16.08750 | -47.87705 | 4477 ft | 195 kts | 245° |
| 2026-05-03 22:15 | -16.09278 | -47.89018 | 4477 ft | 196 kts | 245° |
| 2026-05-03 22:15 | -16.09802 | -47.90334 | 4475 ft | 195 kts | 245° |
| 2026-05-03 22:15 | -16.10327 | -47.91655 | 4472 ft | 196 kts | 245° |
| 2026-05-03 22:16 | -16.10842 | -47.92948 | 4462 ft | 194 kts | 245° |
| 2026-05-03 22:16 | -16.11366 | -47.94258 | 4466 ft | 192 kts | 246° |
| 2026-05-03 22:16 | -16.11566 | -47.95605 | 4458 ft | 194 kts | 273° |
| 2026-05-03 22:16 | -16.11365 | -47.96999 | 4465 ft | 195 kts | 281° |
| 2026-05-03 22:17 | -16.11106 | -47.98381 | 4453 ft | 194 kts | 281° |
| 2026-05-03 22:17 | -16.10874 | -47.99763 | 4447 ft | 193 kts | 279° |
| 2026-05-03 22:17 | -16.10644 | -48.01119 | 4466 ft | 193 kts | 279° |
| 2026-05-03 22:17 | -16.10415 | -48.02516 | 4462 ft | 194 kts | 279° |
| 2026-05-03 22:18 | -16.10180 | -48.03895 | 4456 ft | 194 kts | 280° |
| 2026-05-03 22:18 | -16.09852 | -48.05255 | 4458 ft | 197 kts | 294° |
| 2026-05-03 22:18 | -16.09176 | -48.06478 | 4459 ft | 197 kts | 304° |
| 2026-05-03 22:18 | -16.08408 | -48.07661 | 4445 ft | 195 kts | 304° |
| 2026-05-03 22:19 | -16.07690 | -48.08833 | 4447 ft | 189 kts | 302° |
| 2026-05-03 22:19 | -16.06992 | -48.09982 | 4440 ft | 190 kts | 303° |
| 2026-05-03 22:19 | -16.06296 | -48.11156 | 4450 ft | 193 kts | 301° |
| 2026-05-03 22:19 | -16.05597 | -48.12350 | 4449 ft | 196 kts | 302° |
| 2026-05-03 22:20 | -16.05009 | -48.13624 | 4441 ft | 195 kts | 285° |
| 2026-05-03 22:20 | -16.04841 | -48.15036 | 4432 ft | 196 kts | 271° |
| 2026-05-03 22:20 | -16.04794 | -48.16451 | 4437 ft | 197 kts | 272° |
| 2026-05-03 22:20 | -16.04723 | -48.17880 | 4428 ft | 197 kts | 272° |
| 2026-05-03 22:21 | -16.04633 | -48.19299 | 4426 ft | 196 kts | 273° |
| 2026-05-03 22:21 | -16.04544 | -48.20699 | 4417 ft | 194 kts | 272° |
| 2026-05-03 22:21 | -16.04456 | -48.22095 | 4415 ft | 194 kts | 273° |
| 2026-05-03 22:21 | -16.04371 | -48.23482 | 4407 ft | 193 kts | 273° |
| 2026-05-03 22:22 | -16.04288 | -48.24874 | 4408 ft | 192 kts | 272° |
| 2026-05-03 22:22 | -16.04495 | -48.26224 | 4402 ft | 191 kts | 243° |
| 2026-05-03 22:22 | -16.05168 | -48.27396 | 4408 ft | 187 kts | 232° |
| 2026-05-03 22:22 | -16.05929 | -48.28513 | 4408 ft | 188 kts | 232° |
| 2026-05-03 22:23 | -16.06662 | -48.29616 | 4409 ft | 186 kts | 233° |
| 2026-05-03 22:23 | -16.07404 | -48.30741 | 4405 ft | 187 kts | 233° |
| 2026-05-03 22:23 | -16.08129 | -48.31854 | 4405 ft | 188 kts | 233° |
| 2026-05-03 22:23 | -16.08868 | -48.32980 | 4411 ft | 189 kts | 233° |
| 2026-05-03 22:24 | -16.09615 | -48.34118 | 4407 ft | 192 kts | 233° |
| 2026-05-03 22:24 | -16.10371 | -48.35270 | 4413 ft | 193 kts | 233° |
| 2026-05-03 22:24 | -16.11119 | -48.36422 | 4415 ft | 195 kts | 233° |
| 2026-05-03 22:24 | -16.11896 | -48.37607 | 4417 ft | 197 kts | 233° |
| 2026-05-03 22:25 | -16.12667 | -48.38784 | 4413 ft | 195 kts | 233° |
| 2026-05-03 22:25 | -16.13431 | -48.39948 | 4413 ft | 194 kts | 233° |
| 2026-05-03 22:25 | -16.14175 | -48.41093 | 4408 ft | 192 kts | 233° |
| 2026-05-03 22:25 | -16.14934 | -48.42251 | 4405 ft | 192 kts | 233° |
| 2026-05-03 22:26 | -16.15680 | -48.43393 | 4409 ft | 194 kts | 233° |
| 2026-05-03 22:26 | -16.16439 | -48.44553 | 4405 ft | 192 kts | 234° |
| 2026-05-03 22:26 | -16.17194 | -48.45708 | 4411 ft | 193 kts | 233° |
| 2026-05-03 22:26 | -16.17957 | -48.46873 | 4401 ft | 194 kts | 233° |
| 2026-05-03 22:27 | -16.18464 | -48.47651 | 4408 ft | 195 kts | 233° |
| 2026-05-03 22:27 | -16.19212 | -48.48792 | 4406 ft | 190 kts | 233° |
| 2026-05-03 22:27 | -16.19994 | -48.49897 | 4395 ft | 186 kts | 222° |
| 2026-05-03 22:27 | -16.21416 | -48.50829 | 4398 ft | 180 kts | 204° |
| 2026-05-03 22:28 | -16.22175 | -48.51223 | 4416 ft | 185 kts | 204° |
| 2026-05-03 22:28 | -16.23319 | -48.51854 | 4403 ft | 185 kts | 206° |
| 2026-05-03 22:28 | -16.24454 | -48.52492 | 4402 ft | 184 kts | 205° |
| 2026-05-03 22:28 | -16.25591 | -48.53125 | 4410 ft | 185 kts | 205° |
| 2026-05-03 22:29 | -16.26722 | -48.53756 | 4403 ft | 185 kts | 205° |
| 2026-05-03 22:29 | -16.27866 | -48.54396 | 4411 ft | 185 kts | 206° |
| 2026-05-03 22:29 | -16.29004 | -48.55038 | 4412 ft | 186 kts | 206° |
| 2026-05-03 22:29 | -16.30127 | -48.55665 | 4402 ft | 184 kts | 206° |
| 2026-05-03 22:30 | -16.31256 | -48.56291 | 4399 ft | 185 kts | 205° |
| 2026-05-03 22:30 | -16.32396 | -48.56926 | 4410 ft | 184 kts | 202° |
| 2026-05-03 22:30 | -16.33532 | -48.57564 | 4405 ft | 184 kts | 205° |
| 2026-05-03 22:30 | -16.34649 | -48.58189 | 4404 ft | 181 kts | 205° |
| 2026-05-03 22:31 | -16.35758 | -48.58811 | 4410 ft | 183 kts | 206° |
| 2026-05-03 22:31 | -16.36878 | -48.59439 | 4407 ft | 186 kts | 205° |
| 2026-05-03 22:31 | -16.38034 | -48.60083 | 4412 ft | 188 kts | 206° |
| 2026-05-03 22:31 | -16.39171 | -48.60721 | 4405 ft | 187 kts | 205° |
| 2026-05-03 22:32 | -16.40324 | -48.61366 | 4414 ft | 189 kts | 206° |
| 2026-05-03 22:32 | -16.41492 | -48.62017 | 4409 ft | 189 kts | 206° |
| 2026-05-03 22:32 | -16.42633 | -48.62660 | 4408 ft | 187 kts | 206° |
| 2026-05-03 22:32 | -16.43777 | -48.63301 | 4403 ft | 187 kts | 206° |
| 2026-05-03 22:33 | -16.44908 | -48.63936 | 4404 ft | 184 kts | 206° |
| 2026-05-03 22:33 | -16.46045 | -48.64573 | 4407 ft | 184 kts | 206° |
| 2026-05-03 22:33 | -16.47170 | -48.65203 | 4403 ft | 185 kts | 205° |
| 2026-05-03 22:33 | -16.48301 | -48.65832 | 4397 ft | 183 kts | 205° |
| 2026-05-03 22:34 | -16.49437 | -48.66466 | 4400 ft | 185 kts | 206° |
| 2026-05-03 22:34 | -16.50580 | -48.67112 | 4410 ft | 185 kts | 206° |
| 2026-05-03 22:34 | -16.51709 | -48.67752 | 4411 ft | 188 kts | 206° |
| 2026-05-03 22:34 | -16.52873 | -48.68400 | 4404 ft | 186 kts | 206° |
| 2026-05-03 22:35 | -16.54000 | -48.69034 | 4413 ft | 187 kts | 205° |
| 2026-05-03 22:35 | -16.55159 | -48.69680 | 4406 ft | 187 kts | 205° |
| 2026-05-03 22:35 | -16.56311 | -48.70327 | 4402 ft | 188 kts | 207° |
| 2026-05-03 22:35 | -16.57436 | -48.70962 | 4409 ft | 185 kts | 205° |
| 2026-05-03 22:36 | -16.58585 | -48.71601 | 4405 ft | 187 kts | 206° |
| 2026-05-03 22:36 | -16.59725 | -48.72241 | 4408 ft | 186 kts | 206° |
| 2026-05-03 22:36 | -16.60865 | -48.72879 | 4396 ft | 184 kts | 206° |
| 2026-05-03 22:36 | -16.61965 | -48.73513 | 4400 ft | 182 kts | 207° |
| 2026-05-03 22:37 | -16.63061 | -48.74193 | 4393 ft | 184 kts | 208° |
| 2026-05-03 22:37 | -16.64169 | -48.74878 | 4395 ft | 183 kts | 208° |
| 2026-05-03 22:37 | -16.65247 | -48.75546 | 4406 ft | 182 kts | 208° |
| 2026-05-03 22:37 | -16.66355 | -48.76231 | 4402 ft | 184 kts | 208° |
| 2026-05-03 22:38 | -16.67445 | -48.76905 | 4401 ft | 183 kts | 208° |
| 2026-05-03 22:38 | -16.68540 | -48.77581 | 4396 ft | 181 kts | 208° |
| 2026-05-03 22:38 | -16.69616 | -48.78248 | 4404 ft | 179 kts | 208° |
| 2026-05-03 22:38 | -16.70691 | -48.78912 | 4398 ft | 182 kts | 208° |
| 2026-05-03 22:39 | -16.71780 | -48.79584 | 4399 ft | 182 kts | 208° |
| 2026-05-03 22:39 | -16.72875 | -48.80262 | 4398 ft | 182 kts | 208° |
| 2026-05-03 22:39 | -16.73965 | -48.80934 | 4405 ft | 181 kts | 209° |
| 2026-05-03 22:39 | -16.75059 | -48.81611 | 4402 ft | 183 kts | 208° |
| 2026-05-03 22:40 | -16.76148 | -48.82285 | 4399 ft | 182 kts | 208° |
| 2026-05-03 22:40 | -16.77233 | -48.82959 | 4394 ft | 182 kts | 208° |
| 2026-05-03 22:40 | -16.78318 | -48.83628 | 4391 ft | 180 kts | 208° |
| 2026-05-03 22:40 | -16.79388 | -48.84294 | 4395 ft | 181 kts | 209° |
| 2026-05-03 22:41 | -16.80475 | -48.84967 | 4390 ft | 180 kts | 208° |
| 2026-05-03 22:41 | -16.81561 | -48.85636 | 4398 ft | 181 kts | 208° |
| 2026-05-03 22:41 | -16.82636 | -48.86303 | 4400 ft | 178 kts | 209° |
| 2026-05-03 22:41 | -16.83721 | -48.86980 | 4399 ft | 180 kts | 208° |
| 2026-05-03 22:42 | -16.84797 | -48.87635 | 4397 ft | 180 kts | 208° |
| 2026-05-03 22:42 | -16.85880 | -48.88311 | 4399 ft | 181 kts | 209° |
| 2026-05-03 22:42 | -16.86979 | -48.88994 | 4392 ft | 181 kts | 208° |
| 2026-05-03 22:42 | -16.88056 | -48.89659 | 4393 ft | 180 kts | 208° |
| 2026-05-03 22:43 | -16.89142 | -48.90339 | 4393 ft | 182 kts | 208° |
| 2026-05-03 22:43 | -16.90229 | -48.91011 | 4395 ft | 184 kts | 208° |
| 2026-05-03 22:43 | -16.91344 | -48.91697 | 4387 ft | 185 kts | 209° |
| 2026-05-03 22:43 | -16.92442 | -48.92377 | 4401 ft | 185 kts | 208° |
| 2026-05-03 22:44 | -16.93549 | -48.93068 | 4386 ft | 183 kts | 210° |
| 2026-05-03 22:44 | -16.94634 | -48.93744 | 4379 ft | 179 kts | 208° |
| 2026-05-03 22:44 | -16.95695 | -48.94419 | 4383 ft | 179 kts | 215° |
| 2026-05-03 22:44 | -16.96419 | -48.95473 | 4396 ft | 181 kts | 246° |
| 2026-05-03 22:45 | -16.96601 | -48.96794 | 4392 ft | 188 kts | 269° |
| 2026-05-03 22:45 | -16.96501 | -48.98158 | 4406 ft | 187 kts | 273° |
| 2026-05-03 22:45 | -16.96387 | -48.99532 | 4386 ft | 190 kts | 272° |
| 2026-05-03 22:45 | -16.96294 | -49.00935 | 4387 ft | 193 kts | 271° |
| 2026-05-03 22:46 | -16.96210 | -49.02304 | 4395 ft | 191 kts | 272° |
| 2026-05-03 22:46 | -16.96131 | -49.03683 | 4385 ft | 191 kts | 271° |
| 2026-05-03 22:46 | -16.96046 | -49.05084 | 4387 ft | 190 kts | 272° |
| 2026-05-03 22:46 | -16.95951 | -49.06474 | 4391 ft | 193 kts | 272° |
| 2026-05-03 22:47 | -16.95862 | -49.07849 | 4384 ft | 188 kts | 272° |
| 2026-05-03 22:47 | -16.95763 | -49.09225 | 4377 ft | 191 kts | 272° |
| 2026-05-03 22:47 | -16.95697 | -49.10608 | 4380 ft | 191 kts | 271° |
| 2026-05-03 22:47 | -16.95609 | -49.11997 | 4395 ft | 195 kts | 272° |
| 2026-05-03 22:48 | -16.95514 | -49.13418 | 4399 ft | 195 kts | 272° |
| 2026-05-03 22:48 | -16.95429 | -49.14815 | 4398 ft | 190 kts | 272° |
| 2026-05-03 22:48 | -16.95346 | -49.16199 | 4385 ft | 191 kts | 271° |
| 2026-05-03 22:48 | -16.95252 | -49.17593 | 4407 ft | 193 kts | 272° |
| 2026-05-03 22:49 | -16.95166 | -49.18998 | 4402 ft | 194 kts | 271° |
| 2026-05-03 22:49 | -16.95081 | -49.20380 | 4391 ft | 188 kts | 272° |
| 2026-05-03 22:49 | -16.94801 | -49.21704 | 4398 ft | 190 kts | 296° |
| 2026-05-03 22:49 | -16.93981 | -49.22834 | 4402 ft | 197 kts | 311° |
| 2026-05-03 22:50 | -16.93008 | -49.23842 | 4415 ft | 198 kts | 314° |
| 2026-05-03 22:50 | -16.92045 | -49.24873 | 4391 ft | 200 kts | 312° |
| 2026-05-03 22:50 | -16.91090 | -49.25918 | 4400 ft | 198 kts | 314° |
| 2026-05-03 22:50 | -16.90128 | -49.26944 | 4404 ft | 198 kts | 313° |
| 2026-05-03 22:51 | -16.89159 | -49.27998 | 4414 ft | 198 kts | 312° |
| 2026-05-03 22:51 | -16.88214 | -49.29024 | 4416 ft | 197 kts | 313° |
| 2026-05-03 22:51 | -16.87268 | -49.30047 | 4425 ft | 194 kts | 312° |
| 2026-05-03 22:51 | -16.86320 | -49.31076 | 4429 ft | 198 kts | 312° |
| 2026-05-03 22:52 | -16.85369 | -49.32105 | 4431 ft | 196 kts | 313° |
| 2026-05-03 22:52 | -16.84421 | -49.33130 | 4446 ft | 201 kts | 311° |
| 2026-05-03 22:52 | -16.83448 | -49.34191 | 4434 ft | 198 kts | 312° |
| 2026-05-03 22:52 | -16.82513 | -49.35200 | 4431 ft | 193 kts | 312° |
| 2026-05-03 22:53 | -16.81576 | -49.36210 | 4441 ft | 195 kts | 313° |
| 2026-05-03 22:53 | -16.80631 | -49.37237 | 4434 ft | 194 kts | 313° |
| 2026-05-03 22:53 | -16.79687 | -49.38257 | 4439 ft | 196 kts | 313° |
| 2026-05-03 22:53 | -16.78737 | -49.39289 | 4441 ft | 196 kts | 312° |
| 2026-05-03 22:54 | -16.77787 | -49.40316 | 4443 ft | 195 kts | 312° |
| 2026-05-03 22:54 | -16.76846 | -49.41337 | 4432 ft | 197 kts | 313° |
| 2026-05-03 22:54 | -16.75751 | -49.42179 | 4434 ft | 197 kts | 338° |
| 2026-05-03 22:54 | -16.74400 | -49.42427 | 4343 ft | 201 kts | 4° |
| 2026-05-03 22:55 | -16.73062 | -49.42031 | 4169 ft | 197 kts | 29° |
| 2026-05-03 22:55 | -16.71908 | -49.41289 | 4027 ft | 192 kts | 38° |
| 2026-05-03 22:55 | -16.70816 | -49.40509 | 3955 ft | 186 kts | 37° |
| 2026-05-03 22:55 | -16.69757 | -49.39789 | 3948 ft | 178 kts | 35° |
| 2026-05-03 22:56 | -16.68743 | -49.39104 | 3949 ft | 172 kts | 36° |
| 2026-05-03 22:56 | -16.67751 | -49.38437 | 3946 ft | 165 kts | 36° |
| 2026-05-03 22:56 | -16.66798 | -49.37794 | 3868 ft | 166 kts | 36° |
| 2026-05-03 22:56 | -16.66156 | -49.37360 | 3781 ft | 164 kts | 36° |
| 2026-05-03 22:57 | -16.64909 | -49.36518 | 3763 ft | 154 kts | 35° |
| 2026-05-03 22:57 | -16.64313 | -49.36114 | 3757 ft | 153 kts | 36° |
| 2026-05-03 22:57 | -16.63442 | -49.35530 | 3757 ft | 147 kts | 36° |
| 2026-05-03 22:57 | -16.62280 | -49.34817 | 3755 ft | 145 kts | 17° |
| 2026-05-03 22:58 | -16.61611 | -49.34846 | 3759 ft | 145 kts | 339° |
| 2026-05-03 22:58 | -16.60907 | -49.35553 | 3755 ft | 140 kts | 300° |
| 2026-05-03 22:58 | -16.60372 | -49.36350 | 3749 ft | 128 kts | 301° |
| 2026-05-03 22:58 | -16.59918 | -49.37122 | 3736 ft | 122 kts | 291° |
| 2026-05-03 22:59 | -16.59830 | -49.37933 | 3657 ft | 108 kts | 237° |
| 2026-05-03 22:59 | -16.60399 | -49.38305 | 3560 ft | 100 kts | 172° |
| 2026-05-03 22:59 | -16.60952 | -49.37876 | 3405 ft | 108 kts | 130° |
| 2026-05-03 22:59 | -16.61360 | -49.37190 | 3267 ft | 114 kts | 121° |
| 2026-05-03 23:00 | -16.61744 | -49.36465 | 3124 ft | 113 kts | 120° |
| 2026-05-03 23:00 | -16.62104 | -49.35793 | 2906 ft | 100 kts | 119° |
| 2026-05-03 23:00 | -16.62416 | -49.35205 | 2749 ft | 77 kts | 119° |
| 2026-05-03 23:00 | -16.62580 | -49.34894 | 2722 ft | 17 kts | 115° |
| 2026-05-03 23:01 | -16.62519 | -49.34837 | 2717 ft | 14 kts | 16° |
| 2026-05-03 23:01 | -16.62486 | -49.34870 | 2720 ft | 10 kts | 284° |
| 2026-05-03 23:01 | -16.62459 | -49.34927 | 2725 ft | 4 kts | 291° |
| 2026-05-03 23:01 | -16.62469 | -49.34939 | 2725 ft | 0 kts | 202° |